sensor_id;sensor_type;location;lat;lon;timestamp;P1;durP1;ratioP1;P2;durP2;ratioP2
45136;SDS011;30894;51.740;19.498;2023-04-06T00:02:19;25.70;;;8.20;;
45136;SDS011;30894;51.740;19.498;2023-04-06T00:04:45;14.48;;;6.95;;
45136;SDS011;30894;51.740;19.498;2023-04-06T00:07:11;15.52;;;7.05;;
45136;SDS011;30894;51.740;19.498;2023-04-06T00:09:37;17.23;;;7.07;;
45136;SDS011;30894;51.740;19.498;2023-04-06T00:12:03;21.45;;;7.63;;
45136;SDS011;30894;51.740;19.498;2023-04-06T00:14:29;15.43;;;8.40;;
45136;SDS011;30894;51.740;19.498;2023-04-06T00:16:56;22.60;;;8.85;;
45136;SDS011;30894;51.740;19.498;2023-04-06T00:19:22;22.23;;;8.00;;
45136;SDS011;30894;51.740;19.498;2023-04-06T00:21:48;18.38;;;6.90;;
45136;SDS011;30894;51.740;19.498;2023-04-06T00:24:14;18.90;;;6.85;;
45136;SDS011;30894;51.740;19.498;2023-04-06T00:26:40;10.70;;;7.22;;
45136;SDS011;30894;51.740;19.498;2023-04-06T00:29:06;29.15;;;7.22;;
45136;SDS011;30894;51.740;19.498;2023-04-06T00:31:33;15.38;;;6.20;;
45136;SDS011;30894;51.740;19.498;2023-04-06T00:33:58;16.92;;;8.60;;
45136;SDS011;30894;51.740;19.498;2023-04-06T00:36:25;17.00;;;8.40;;
45136;SDS011;30894;51.740;19.498;2023-04-06T00:38:51;14.38;;;8.32;;
45136;SDS011;30894;51.740;19.498;2023-04-06T00:41:17;20.90;;;7.93;;
45136;SDS011;30894;51.740;19.498;2023-04-06T00:43:43;22.88;;;8.10;;
45136;SDS011;30894;51.740;19.498;2023-04-06T00:46:10;18.38;;;8.23;;
45136;SDS011;30894;51.740;19.498;2023-04-06T00:48:35;19.27;;;7.32;;
45136;SDS011;30894;51.740;19.498;2023-04-06T00:51:02;23.60;;;10.20;;
45136;SDS011;30894;51.740;19.498;2023-04-06T00:53:28;21.85;;;8.05;;
45136;SDS011;30894;51.740;19.498;2023-04-06T00:55:54;11.40;;;5.30;;
45136;SDS011;30894;51.740;19.498;2023-04-06T00:58:20;11.30;;;6.60;;
45136;SDS011;30894;51.740;19.498;2023-04-06T01:00:47;18.42;;;8.13;;
45136;SDS011;30894;51.740;19.498;2023-04-06T01:03:13;14.75;;;9.20;;
45136;SDS011;30894;51.740;19.498;2023-04-06T01:05:39;21.52;;;8.48;;
45136;SDS011;30894;51.740;19.498;2023-04-06T01:08:06;26.63;;;9.05;;
45136;SDS011;30894;51.740;19.498;2023-04-06T01:10:33;15.60;;;9.60;;
45136;SDS011;30894;51.740;19.498;2023-04-06T01:12:59;21.73;;;8.57;;
45136;SDS011;30894;51.740;19.498;2023-04-06T01:15:25;19.15;;;8.95;;
45136;SDS011;30894;51.740;19.498;2023-04-06T01:17:53;18.48;;;7.78;;
45136;SDS011;30894;51.740;19.498;2023-04-06T01:20:20;17.55;;;7.97;;
45136;SDS011;30894;51.740;19.498;2023-04-06T01:22:45;17.05;;;7.88;;
45136;SDS011;30894;51.740;19.498;2023-04-06T01:25:12;17.10;;;8.75;;
45136;SDS011;30894;51.740;19.498;2023-04-06T01:27:37;30.00;;;10.02;;
45136;SDS011;30894;51.740;19.498;2023-04-06T01:30:04;13.95;;;8.30;;
45136;SDS011;30894;51.740;19.498;2023-04-06T01:32:31;13.75;;;7.75;;
45136;SDS011;30894;51.740;19.498;2023-04-06T01:34:57;15.73;;;7.47;;
45136;SDS011;30894;51.740;19.498;2023-04-06T01:37:23;18.55;;;9.00;;
45136;SDS011;30894;51.740;19.498;2023-04-06T01:39:49;18.25;;;7.03;;
45136;SDS011;30894;51.740;19.498;2023-04-06T01:42:15;17.48;;;7.93;;
45136;SDS011;30894;51.740;19.498;2023-04-06T01:44:41;18.58;;;8.13;;
45136;SDS011;30894;51.740;19.498;2023-04-06T01:47:07;18.23;;;8.93;;
45136;SDS011;30894;51.740;19.498;2023-04-06T01:49:34;26.73;;;9.55;;
45136;SDS011;30894;51.740;19.498;2023-04-06T01:52:00;14.00;;;8.90;;
45136;SDS011;30894;51.740;19.498;2023-04-06T01:54:26;15.52;;;8.25;;
45136;SDS011;30894;51.740;19.498;2023-04-06T01:56:51;18.58;;;7.53;;
45136;SDS011;30894;51.740;19.498;2023-04-06T01:59:18;22.13;;;7.65;;
45136;SDS011;30894;51.740;19.498;2023-04-06T02:01:44;9.23;;;5.75;;
45136;SDS011;30894;51.740;19.498;2023-04-06T02:04:10;18.95;;;8.00;;
45136;SDS011;30894;51.740;19.498;2023-04-06T02:06:37;17.65;;;7.82;;
45136;SDS011;30894;51.740;19.498;2023-04-06T02:09:03;18.10;;;8.30;;
45136;SDS011;30894;51.740;19.498;2023-04-06T02:11:29;32.50;;;9.55;;
45136;SDS011;30894;51.740;19.498;2023-04-06T02:13:55;25.98;;;8.52;;
45136;SDS011;30894;51.740;19.498;2023-04-06T02:16:21;9.43;;;5.68;;
45136;SDS011;30894;51.740;19.498;2023-04-06T02:18:49;11.68;;;7.20;;
45136;SDS011;30894;51.740;19.498;2023-04-06T02:21:15;15.23;;;7.05;;
45136;SDS011;30894;51.740;19.498;2023-04-06T02:23:45;17.35;;;7.05;;
45136;SDS011;30894;51.740;19.498;2023-04-06T02:26:13;25.95;;;8.38;;
45136;SDS011;30894;51.740;19.498;2023-04-06T02:28:40;14.57;;;7.10;;
45136;SDS011;30894;51.740;19.498;2023-04-06T02:31:06;20.40;;;7.38;;
45136;SDS011;30894;51.740;19.498;2023-04-06T02:33:33;11.52;;;5.10;;
45136;SDS011;30894;51.740;19.498;2023-04-06T02:35:59;14.95;;;5.82;;
45136;SDS011;30894;51.740;19.498;2023-04-06T02:38:25;8.85;;;6.13;;
45136;SDS011;30894;51.740;19.498;2023-04-06T02:40:50;16.67;;;7.78;;
45136;SDS011;30894;51.740;19.498;2023-04-06T02:43:17;23.17;;;8.48;;
45136;SDS011;30894;51.740;19.498;2023-04-06T02:45:43;11.63;;;6.10;;
45136;SDS011;30894;51.740;19.498;2023-04-06T02:48:10;22.00;;;9.00;;
45136;SDS011;30894;51.740;19.498;2023-04-06T02:50:36;19.27;;;9.23;;
45136;SDS011;30894;51.740;19.498;2023-04-06T02:53:02;14.02;;;6.88;;
45136;SDS011;30894;51.740;19.498;2023-04-06T02:55:28;9.07;;;6.43;;
45136;SDS011;30894;51.740;19.498;2023-04-06T02:57:54;9.50;;;5.68;;
45136;SDS011;30894;51.740;19.498;2023-04-06T03:00:20;11.43;;;6.70;;
45136;SDS011;30894;51.740;19.498;2023-04-06T03:02:48;20.00;;;7.47;;
45136;SDS011;30894;51.740;19.498;2023-04-06T03:05:15;22.23;;;6.63;;
45136;SDS011;30894;51.740;19.498;2023-04-06T03:07:41;10.48;;;6.10;;
45136;SDS011;30894;51.740;19.498;2023-04-06T03:10:07;18.48;;;8.57;;
45136;SDS011;30894;51.740;19.498;2023-04-06T03:12:35;23.75;;;7.00;;
45136;SDS011;30894;51.740;19.498;2023-04-06T03:15:01;10.10;;;6.20;;
45136;SDS011;30894;51.740;19.498;2023-04-06T03:17:27;25.00;;;7.55;;
45136;SDS011;30894;51.740;19.498;2023-04-06T03:19:54;13.93;;;6.55;;
45136;SDS011;30894;51.740;19.498;2023-04-06T03:22:20;10.20;;;6.20;;
45136;SDS011;30894;51.740;19.498;2023-04-06T03:24:46;18.40;;;7.40;;
45136;SDS011;30894;51.740;19.498;2023-04-06T03:27:13;11.68;;;6.32;;
45136;SDS011;30894;51.740;19.498;2023-04-06T03:29:38;15.48;;;7.13;;
45136;SDS011;30894;51.740;19.498;2023-04-06T03:32:05;18.50;;;7.72;;
45136;SDS011;30894;51.740;19.498;2023-04-06T03:34:30;9.00;;;5.72;;
45136;SDS011;30894;51.740;19.498;2023-04-06T03:36:57;10.75;;;6.13;;
45136;SDS011;30894;51.740;19.498;2023-04-06T03:39:22;13.50;;;8.30;;
45136;SDS011;30894;51.740;19.498;2023-04-06T03:41:49;15.07;;;5.97;;
45136;SDS011;30894;51.740;19.498;2023-04-06T03:44:14;6.80;;;5.40;;
45136;SDS011;30894;51.740;19.498;2023-04-06T03:46:42;13.10;;;7.00;;
45136;SDS011;30894;51.740;19.498;2023-04-06T03:49:08;25.55;;;8.02;;
45136;SDS011;30894;51.740;19.498;2023-04-06T03:51:34;13.65;;;6.45;;
45136;SDS011;30894;51.740;19.498;2023-04-06T03:54:00;14.98;;;7.10;;
45136;SDS011;30894;51.740;19.498;2023-04-06T03:56:27;12.00;;;6.32;;
45136;SDS011;30894;51.740;19.498;2023-04-06T03:58:53;8.07;;;5.72;;
45136;SDS011;30894;51.740;19.498;2023-04-06T04:01:20;7.95;;;4.88;;
45136;SDS011;30894;51.740;19.498;2023-04-06T04:03:46;19.33;;;6.25;;
45136;SDS011;30894;51.740;19.498;2023-04-06T04:06:13;11.57;;;6.38;;
45136;SDS011;30894;51.740;19.498;2023-04-06T04:08:39;15.55;;;7.65;;
45136;SDS011;30894;51.740;19.498;2023-04-06T04:11:05;15.27;;;6.70;;
45136;SDS011;30894;51.740;19.498;2023-04-06T04:13:31;29.45;;;8.95;;
45136;SDS011;30894;51.740;19.498;2023-04-06T04:15:57;20.25;;;7.90;;
45136;SDS011;30894;51.740;19.498;2023-04-06T04:18:23;9.75;;;6.57;;
45136;SDS011;30894;51.740;19.498;2023-04-06T04:20:50;16.38;;;7.03;;
45136;SDS011;30894;51.740;19.498;2023-04-06T04:23:16;15.57;;;8.02;;
45136;SDS011;30894;51.740;19.498;2023-04-06T04:25:43;15.52;;;6.82;;
45136;SDS011;30894;51.740;19.498;2023-04-06T04:28:09;31.55;;;8.65;;
45136;SDS011;30894;51.740;19.498;2023-04-06T04:30:35;13.13;;;7.95;;
45136;SDS011;30894;51.740;19.498;2023-04-06T04:33:01;21.50;;;11.55;;
45136;SDS011;30894;51.740;19.498;2023-04-06T04:35:27;14.07;;;7.97;;
45136;SDS011;30894;51.740;19.498;2023-04-06T04:37:53;18.88;;;10.35;;
45136;SDS011;30894;51.740;19.498;2023-04-06T04:40:20;27.45;;;12.80;;
45136;SDS011;30894;51.740;19.498;2023-04-06T04:42:46;13.55;;;8.38;;
45136;SDS011;30894;51.740;19.498;2023-04-06T04:45:12;21.48;;;12.25;;
45136;SDS011;30894;51.740;19.498;2023-04-06T04:47:38;13.38;;;9.05;;
45136;SDS011;30894;51.740;19.498;2023-04-06T04:50:04;34.47;;;13.93;;
45136;SDS011;30894;51.740;19.498;2023-04-06T04:52:31;45.80;;;12.88;;
45136;SDS011;30894;51.740;19.498;2023-04-06T04:54:57;28.50;;;11.95;;
45136;SDS011;30894;51.740;19.498;2023-04-06T04:57:23;17.75;;;9.38;;
45136;SDS011;30894;51.740;19.498;2023-04-06T04:59:50;21.30;;;9.85;;
45136;SDS011;30894;51.740;19.498;2023-04-06T05:02:16;25.63;;;12.23;;
45136;SDS011;30894;51.740;19.498;2023-04-06T05:04:43;21.98;;;12.00;;
45136;SDS011;30894;51.740;19.498;2023-04-06T05:07:09;18.95;;;11.90;;
45136;SDS011;30894;51.740;19.498;2023-04-06T05:09:35;29.13;;;13.05;;
45136;SDS011;30894;51.740;19.498;2023-04-06T05:12:01;22.00;;;12.23;;
45136;SDS011;30894;51.740;19.498;2023-04-06T05:14:28;25.27;;;11.98;;
45136;SDS011;30894;51.740;19.498;2023-04-06T05:16:54;41.72;;;12.75;;
45136;SDS011;30894;51.740;19.498;2023-04-06T05:19:20;42.47;;;15.10;;
45136;SDS011;30894;51.740;19.498;2023-04-06T05:21:46;39.88;;;17.52;;
45136;SDS011;30894;51.740;19.498;2023-04-06T05:24:13;31.58;;;16.95;;
45136;SDS011;30894;51.740;19.498;2023-04-06T05:26:39;33.30;;;15.45;;
45136;SDS011;30894;51.740;19.498;2023-04-06T05:29:06;34.85;;;14.32;;
45136;SDS011;30894;51.740;19.498;2023-04-06T05:31:32;25.73;;;14.65;;
45136;SDS011;30894;51.740;19.498;2023-04-06T05:33:59;30.38;;;14.35;;
45136;SDS011;30894;51.740;19.498;2023-04-06T05:36:25;31.95;;;15.55;;
45136;SDS011;30894;51.740;19.498;2023-04-06T05:38:51;37.40;;;16.52;;
45136;SDS011;30894;51.740;19.498;2023-04-06T05:41:18;39.03;;;13.90;;
45136;SDS011;30894;51.740;19.498;2023-04-06T05:43:44;35.00;;;13.40;;
45136;SDS011;30894;51.740;19.498;2023-04-06T05:46:10;43.67;;;16.85;;
45136;SDS011;30894;51.740;19.498;2023-04-06T05:48:36;31.48;;;15.00;;
45136;SDS011;30894;51.740;19.498;2023-04-06T05:51:02;51.25;;;19.02;;
45136;SDS011;30894;51.740;19.498;2023-04-06T05:53:31;43.13;;;17.23;;
45136;SDS011;30894;51.740;19.498;2023-04-06T05:56:01;41.80;;;17.48;;
45136;SDS011;30894;51.740;19.498;2023-04-06T05:58:29;32.08;;;15.25;;
45136;SDS011;30894;51.740;19.498;2023-04-06T06:01:01;41.92;;;16.90;;
45136;SDS011;30894;51.740;19.498;2023-04-06T06:03:28;31.33;;;15.82;;
45136;SDS011;30894;51.740;19.498;2023-04-06T06:06:04;39.90;;;14.10;;
45136;SDS011;30894;51.740;19.498;2023-04-06T06:08:30;30.48;;;12.48;;
45136;SDS011;30894;51.740;19.498;2023-04-06T06:10:56;24.67;;;10.52;;
45136;SDS011;30894;51.740;19.498;2023-04-06T06:13:23;28.02;;;9.18;;
45136;SDS011;30894;51.740;19.498;2023-04-06T06:15:49;21.92;;;10.98;;
45136;SDS011;30894;51.740;19.498;2023-04-06T06:18:16;16.33;;;10.00;;
45136;SDS011;30894;51.740;19.498;2023-04-06T06:20:42;19.13;;;8.60;;
45136;SDS011;30894;51.740;19.498;2023-04-06T06:23:08;19.00;;;8.38;;
45136;SDS011;30894;51.740;19.498;2023-04-06T06:25:34;18.02;;;8.48;;
45136;SDS011;30894;51.740;19.498;2023-04-06T06:28:00;22.58;;;6.70;;
45136;SDS011;30894;51.740;19.498;2023-04-06T06:30:26;12.77;;;7.05;;
45136;SDS011;30894;51.740;19.498;2023-04-06T06:32:53;22.23;;;8.88;;
45136;SDS011;30894;51.740;19.498;2023-04-06T06:35:18;17.85;;;7.75;;
45136;SDS011;30894;51.740;19.498;2023-04-06T06:37:45;21.48;;;7.75;;
45136;SDS011;30894;51.740;19.498;2023-04-06T06:40:11;15.77;;;6.70;;
45136;SDS011;30894;51.740;19.498;2023-04-06T06:42:38;19.88;;;7.85;;
45136;SDS011;30894;51.740;19.498;2023-04-06T06:45:05;16.38;;;7.50;;
45136;SDS011;30894;51.740;19.498;2023-04-06T06:47:32;23.05;;;9.00;;
45136;SDS011;30894;51.740;19.498;2023-04-06T06:49:58;20.42;;;7.22;;
45136;SDS011;30894;51.740;19.498;2023-04-06T06:52:24;15.82;;;7.85;;
45136;SDS011;30894;51.740;19.498;2023-04-06T06:54:50;23.00;;;8.18;;
45136;SDS011;30894;51.740;19.498;2023-04-06T06:57:16;18.85;;;8.60;;
45136;SDS011;30894;51.740;19.498;2023-04-06T06:59:42;24.50;;;8.27;;
45136;SDS011;30894;51.740;19.498;2023-04-06T07:02:09;20.88;;;8.48;;
45136;SDS011;30894;51.740;19.498;2023-04-06T07:04:35;20.73;;;9.68;;
45136;SDS011;30894;51.740;19.498;2023-04-06T07:07:02;23.38;;;10.20;;
45136;SDS011;30894;51.740;19.498;2023-04-06T07:09:28;19.05;;;7.13;;
45136;SDS011;30894;51.740;19.498;2023-04-06T07:11:55;22.17;;;8.20;;
45136;SDS011;30894;51.740;19.498;2023-04-06T07:14:21;11.88;;;6.10;;
45136;SDS011;30894;51.740;19.498;2023-04-06T07:16:48;17.88;;;7.47;;
45136;SDS011;30894;51.740;19.498;2023-04-06T07:19:15;16.90;;;6.63;;
45136;SDS011;30894;51.740;19.498;2023-04-06T07:21:41;18.92;;;6.57;;
45136;SDS011;30894;51.740;19.498;2023-04-06T07:24:07;15.55;;;6.10;;
45136;SDS011;30894;51.740;19.498;2023-04-06T07:26:33;16.85;;;5.68;;
45136;SDS011;30894;51.740;19.498;2023-04-06T07:28:59;13.52;;;5.18;;
45136;SDS011;30894;51.740;19.498;2023-04-06T07:31:25;11.10;;;5.35;;
45136;SDS011;30894;51.740;19.498;2023-04-06T07:33:51;12.88;;;5.80;;
45136;SDS011;30894;51.740;19.498;2023-04-06T07:36:17;14.15;;;5.80;;
45136;SDS011;30894;51.740;19.498;2023-04-06T07:38:44;10.50;;;5.15;;
45136;SDS011;30894;51.740;19.498;2023-04-06T07:41:11;11.25;;;4.80;;
45136;SDS011;30894;51.740;19.498;2023-04-06T07:43:38;10.55;;;5.22;;
45136;SDS011;30894;51.740;19.498;2023-04-06T07:46:04;10.48;;;4.75;;
45136;SDS011;30894;51.740;19.498;2023-04-06T07:48:30;11.43;;;4.90;;
45136;SDS011;30894;51.740;19.498;2023-04-06T07:51:00;15.45;;;5.78;;
45136;SDS011;30894;51.740;19.498;2023-04-06T07:53:30;11.40;;;5.35;;
45136;SDS011;30894;51.740;19.498;2023-04-06T07:55:57;15.93;;;6.32;;
45136;SDS011;30894;51.740;19.498;2023-04-06T07:58:24;9.43;;;4.28;;
45136;SDS011;30894;51.740;19.498;2023-04-06T08:00:50;14.55;;;5.55;;
45136;SDS011;30894;51.740;19.498;2023-04-06T08:03:17;12.73;;;4.50;;
45136;SDS011;30894;51.740;19.498;2023-04-06T08:05:46;11.43;;;4.70;;
45136;SDS011;30894;51.740;19.498;2023-04-06T08:08:12;9.07;;;4.40;;
45136;SDS011;30894;51.740;19.498;2023-04-06T08:10:38;11.77;;;5.32;;
45136;SDS011;30894;51.740;19.498;2023-04-06T08:13:04;12.23;;;4.88;;
45136;SDS011;30894;51.740;19.498;2023-04-06T08:15:30;10.80;;;3.50;;
45136;SDS011;30894;51.740;19.498;2023-04-06T08:17:57;6.00;;;2.75;;
45136;SDS011;30894;51.740;19.498;2023-04-06T08:20:23;6.38;;;3.00;;
45136;SDS011;30894;51.740;19.498;2023-04-06T08:22:49;7.22;;;3.47;;
45136;SDS011;30894;51.740;19.498;2023-04-06T08:25:15;4.63;;;2.78;;
45136;SDS011;30894;51.740;19.498;2023-04-06T08:27:41;5.65;;;2.83;;
45136;SDS011;30894;51.740;19.498;2023-04-06T08:30:07;2.83;;;1.88;;
45136;SDS011;30894;51.740;19.498;2023-04-06T08:32:34;7.95;;;2.75;;
45136;SDS011;30894;51.740;19.498;2023-04-06T08:35:00;5.00;;;2.58;;
45136;SDS011;30894;51.740;19.498;2023-04-06T08:37:28;9.15;;;3.03;;
45136;SDS011;30894;51.740;19.498;2023-04-06T08:39:54;5.00;;;3.15;;
45136;SDS011;30894;51.740;19.498;2023-04-06T08:42:21;6.38;;;2.65;;
45136;SDS011;30894;51.740;19.498;2023-04-06T08:44:51;4.25;;;2.30;;
45136;SDS011;30894;51.740;19.498;2023-04-06T08:47:18;3.60;;;2.50;;
45136;SDS011;30894;51.740;19.498;2023-04-06T08:49:45;3.50;;;1.98;;
45136;SDS011;30894;51.740;19.498;2023-04-06T08:52:12;7.28;;;2.33;;
45136;SDS011;30894;51.740;19.498;2023-04-06T08:54:41;5.47;;;2.55;;
45136;SDS011;30894;51.740;19.498;2023-04-06T08:57:07;5.15;;;2.00;;
45136;SDS011;30894;51.740;19.498;2023-04-06T08:59:35;16.15;;;2.30;;
45136;SDS011;30894;51.740;19.498;2023-04-06T09:02:03;5.20;;;2.30;;
45136;SDS011;30894;51.740;19.498;2023-04-06T09:04:31;2.85;;;1.85;;
45136;SDS011;30894;51.740;19.498;2023-04-06T09:06:59;5.22;;;2.05;;
45136;SDS011;30894;51.740;19.498;2023-04-06T09:09:25;3.05;;;2.08;;
45136;SDS011;30894;51.740;19.498;2023-04-06T09:11:52;10.95;;;2.42;;
45136;SDS011;30894;51.740;19.498;2023-04-06T09:14:34;5.38;;;2.40;;
45136;SDS011;30894;51.740;19.498;2023-04-06T09:17:02;2.22;;;1.50;;
45136;SDS011;30894;51.740;19.498;2023-04-06T09:19:28;5.80;;;2.03;;
45136;SDS011;30894;51.740;19.498;2023-04-06T09:22:04;3.38;;;1.70;;
45136;SDS011;30894;51.740;19.498;2023-04-06T09:27:09;3.97;;;2.22;;
45136;SDS011;30894;51.740;19.498;2023-04-06T09:29:35;2.40;;;1.33;;
45136;SDS011;30894;51.740;19.498;2023-04-06T09:32:02;6.95;;;1.60;;
45136;SDS011;30894;51.740;19.498;2023-04-06T09:34:33;4.85;;;1.80;;
45136;SDS011;30894;51.740;19.498;2023-04-06T09:36:59;6.30;;;1.90;;
45136;SDS011;30894;51.740;19.498;2023-04-06T09:39:26;5.60;;;1.98;;
45136;SDS011;30894;51.740;19.498;2023-04-06T09:41:53;3.17;;;1.88;;
45136;SDS011;30894;51.740;19.498;2023-04-06T09:44:19;3.45;;;1.33;;
45136;SDS011;30894;51.740;19.498;2023-04-06T09:46:46;3.63;;;1.83;;
45136;SDS011;30894;51.740;19.498;2023-04-06T09:49:12;2.95;;;1.80;;
45136;SDS011;30894;51.740;19.498;2023-04-06T09:51:40;4.13;;;1.52;;
45136;SDS011;30894;51.740;19.498;2023-04-06T09:54:11;5.93;;;1.70;;
45136;SDS011;30894;51.740;19.498;2023-04-06T09:56:49;2.42;;;1.20;;
45136;SDS011;30894;51.740;19.498;2023-04-06T10:00:04;4.43;;;1.95;;
45136;SDS011;30894;51.740;19.498;2023-04-06T10:06:07;3.33;;;1.55;;
45136;SDS011;30894;51.740;19.498;2023-04-06T10:08:40;3.92;;;2.08;;
45136;SDS011;30894;51.740;19.498;2023-04-06T10:11:11;3.78;;;1.92;;
45136;SDS011;30894;51.740;19.498;2023-04-06T10:13:37;3.25;;;1.75;;
45136;SDS011;30894;51.740;19.498;2023-04-06T10:16:03;3.22;;;2.00;;
45136;SDS011;30894;51.740;19.498;2023-04-06T10:18:31;3.42;;;1.55;;
45136;SDS011;30894;51.740;19.498;2023-04-06T10:21:01;2.63;;;1.52;;
45136;SDS011;30894;51.740;19.498;2023-04-06T10:23:36;1.92;;;1.65;;
45136;SDS011;30894;51.740;19.498;2023-04-06T10:26:15;2.28;;;1.60;;
45136;SDS011;30894;51.740;19.498;2023-04-06T10:31:13;2.45;;;1.48;;
45136;SDS011;30894;51.740;19.498;2023-04-06T10:33:40;3.40;;;1.90;;
45136;SDS011;30894;51.740;19.498;2023-04-06T10:36:13;3.15;;;1.40;;
45136;SDS011;30894;51.740;19.498;2023-04-06T10:38:47;3.78;;;2.00;;
45136;SDS011;30894;51.740;19.498;2023-04-06T10:41:19;3.10;;;1.65;;
45136;SDS011;30894;51.740;19.498;2023-04-06T10:43:53;3.75;;;1.90;;
45136;SDS011;30894;51.740;19.498;2023-04-06T10:46:25;1.80;;;1.55;;
45136;SDS011;30894;51.740;19.498;2023-04-06T10:48:56;2.28;;;1.60;;
45136;SDS011;30894;51.740;19.498;2023-04-06T10:51:27;4.35;;;1.88;;
45136;SDS011;30894;51.740;19.498;2023-04-06T10:53:54;2.75;;;1.58;;
45136;SDS011;30894;51.740;19.498;2023-04-06T10:56:22;6.88;;;1.50;;
45136;SDS011;30894;51.740;19.498;2023-04-06T10:58:52;3.42;;;1.50;;
45136;SDS011;30894;51.740;19.498;2023-04-06T11:01:23;2.65;;;1.67;;
45136;SDS011;30894;51.740;19.498;2023-04-06T11:03:54;2.15;;;1.77;;
45136;SDS011;30894;51.740;19.498;2023-04-06T11:06:27;2.90;;;1.92;;
45136;SDS011;30894;51.740;19.498;2023-04-06T11:08:57;3.10;;;1.40;;
45136;SDS011;30894;51.740;19.498;2023-04-06T11:11:24;3.22;;;1.40;;
45136;SDS011;30894;51.740;19.498;2023-04-06T11:13:53;6.25;;;1.88;;
45136;SDS011;30894;51.740;19.498;2023-04-06T11:16:27;4.72;;;1.50;;
45136;SDS011;30894;51.740;19.498;2023-04-06T11:19:00;3.00;;;1.92;;
45136;SDS011;30894;51.740;19.498;2023-04-06T11:29:18;2.97;;;1.80;;
45136;SDS011;30894;51.740;19.498;2023-04-06T11:31:47;4.25;;;1.70;;
45136;SDS011;30894;51.740;19.498;2023-04-06T11:34:20;1.90;;;1.58;;
45136;SDS011;30894;51.740;19.498;2023-04-06T11:36:48;3.65;;;1.73;;
45136;SDS011;30894;51.740;19.498;2023-04-06T11:39:22;4.15;;;2.05;;
45136;SDS011;30894;51.740;19.498;2023-04-06T11:42:08;3.28;;;1.80;;
45136;SDS011;30894;51.740;19.498;2023-04-06T11:47:07;2.22;;;1.67;;
45136;SDS011;30894;51.740;19.498;2023-04-06T11:49:41;2.88;;;1.70;;
45136;SDS011;30894;51.740;19.498;2023-04-06T11:52:19;2.30;;;1.42;;
45136;SDS011;30894;51.740;19.498;2023-04-06T11:54:49;3.80;;;1.95;;
45136;SDS011;30894;51.740;19.498;2023-04-06T11:57:18;2.28;;;1.35;;
45136;SDS011;30894;51.740;19.498;2023-04-06T11:59:47;4.03;;;1.80;;
45136;SDS011;30894;51.740;19.498;2023-04-06T12:02:13;3.58;;;1.90;;
45136;SDS011;30894;51.740;19.498;2023-04-06T12:04:39;3.08;;;1.60;;
45136;SDS011;30894;51.740;19.498;2023-04-06T12:07:05;4.75;;;1.88;;
45136;SDS011;30894;51.740;19.498;2023-04-06T12:09:31;4.25;;;1.88;;
45136;SDS011;30894;51.740;19.498;2023-04-06T12:11:57;4.68;;;1.88;;
45136;SDS011;30894;51.740;19.498;2023-04-06T12:14:23;3.13;;;2.00;;
45136;SDS011;30894;51.740;19.498;2023-04-06T12:16:49;4.75;;;2.20;;
45136;SDS011;30894;51.740;19.498;2023-04-06T12:19:15;2.63;;;1.70;;
45136;SDS011;30894;51.740;19.498;2023-04-06T12:21:41;4.70;;;2.30;;
45136;SDS011;30894;51.740;19.498;2023-04-06T12:24:08;3.58;;;1.70;;
45136;SDS011;30894;51.740;19.498;2023-04-06T12:26:34;5.78;;;2.17;;
45136;SDS011;30894;51.740;19.498;2023-04-06T12:29:01;5.88;;;2.03;;
45136;SDS011;30894;51.740;19.498;2023-04-06T12:31:32;5.47;;;2.30;;
45136;SDS011;30894;51.740;19.498;2023-04-06T12:34:00;2.47;;;1.45;;
45136;SDS011;30894;51.740;19.498;2023-04-06T12:36:28;2.75;;;1.85;;
45136;SDS011;30894;51.740;19.498;2023-04-06T12:38:54;4.15;;;2.03;;
45136;SDS011;30894;51.740;19.498;2023-04-06T12:41:21;3.72;;;2.22;;
45136;SDS011;30894;51.740;19.498;2023-04-06T12:43:48;5.78;;;2.60;;
45136;SDS011;30894;51.740;19.498;2023-04-06T12:46:15;2.40;;;1.70;;
45136;SDS011;30894;51.740;19.498;2023-04-06T12:48:42;5.03;;;2.42;;
45136;SDS011;30894;51.740;19.498;2023-04-06T12:51:08;3.83;;;2.30;;
45136;SDS011;30894;51.740;19.498;2023-04-06T12:53:34;6.30;;;1.95;;
45136;SDS011;30894;51.740;19.498;2023-04-06T12:56:01;3.97;;;2.20;;
45136;SDS011;30894;51.740;19.498;2023-04-06T12:58:28;3.70;;;2.35;;
45136;SDS011;30894;51.740;19.498;2023-04-06T13:00:55;4.65;;;1.92;;
45136;SDS011;30894;51.740;19.498;2023-04-06T13:03:23;5.95;;;2.45;;
45136;SDS011;30894;51.740;19.498;2023-04-06T13:05:50;3.38;;;2.20;;
45136;SDS011;30894;51.740;19.498;2023-04-06T13:08:17;3.97;;;1.70;;
45136;SDS011;30894;51.740;19.498;2023-04-06T13:10:48;7.03;;;3.28;;
45136;SDS011;30894;51.740;19.498;2023-04-06T13:13:27;3.28;;;2.33;;
45136;SDS011;30894;51.740;19.498;2023-04-06T13:15:59;2.65;;;1.67;;
45136;SDS011;30894;51.740;19.498;2023-04-06T13:18:33;4.63;;;2.13;;
45136;SDS011;30894;51.740;19.498;2023-04-06T13:21:02;2.67;;;1.98;;
45136;SDS011;30894;51.740;19.498;2023-04-06T13:23:28;2.60;;;1.73;;
45136;SDS011;30894;51.740;19.498;2023-04-06T13:26:01;4.45;;;2.03;;
45136;SDS011;30894;51.740;19.498;2023-04-06T13:28:30;3.17;;;2.10;;
45136;SDS011;30894;51.740;19.498;2023-04-06T13:30:58;5.13;;;2.60;;
45136;SDS011;30894;51.740;19.498;2023-04-06T13:33:26;3.53;;;2.15;;
45136;SDS011;30894;51.740;19.498;2023-04-06T13:35:53;3.22;;;1.58;;
45136;SDS011;30894;51.740;19.498;2023-04-06T13:38:19;5.53;;;1.92;;
45136;SDS011;30894;51.740;19.498;2023-04-06T13:40:45;7.47;;;2.20;;
45136;SDS011;30894;51.740;19.498;2023-04-06T13:43:12;5.57;;;2.10;;
45136;SDS011;30894;51.740;19.498;2023-04-06T13:45:38;5.40;;;2.42;;
45136;SDS011;30894;51.740;19.498;2023-04-06T13:48:05;3.85;;;2.03;;
45136;SDS011;30894;51.740;19.498;2023-04-06T13:50:32;4.93;;;2.55;;
45136;SDS011;30894;51.740;19.498;2023-04-06T13:52:59;2.38;;;1.38;;
45136;SDS011;30894;51.740;19.498;2023-04-06T13:55:25;3.90;;;1.70;;
45136;SDS011;30894;51.740;19.498;2023-04-06T13:57:51;4.45;;;1.70;;
45136;SDS011;30894;51.740;19.498;2023-04-06T14:00:18;5.15;;;2.13;;
45136;SDS011;30894;51.740;19.498;2023-04-06T14:02:44;5.28;;;2.47;;
45136;SDS011;30894;51.740;19.498;2023-04-06T14:05:10;6.88;;;2.38;;
45136;SDS011;30894;51.740;19.498;2023-04-06T14:07:37;2.50;;;1.70;;
45136;SDS011;30894;51.740;19.498;2023-04-06T14:10:03;4.97;;;1.88;;
45136;SDS011;30894;51.740;19.498;2023-04-06T14:12:30;5.25;;;2.60;;
45136;SDS011;30894;51.740;19.498;2023-04-06T14:14:56;2.70;;;1.65;;
45136;SDS011;30894;51.740;19.498;2023-04-06T14:17:23;3.28;;;2.08;;
45136;SDS011;30894;51.740;19.498;2023-04-06T14:19:49;6.70;;;2.88;;
45136;SDS011;30894;51.740;19.498;2023-04-06T14:22:17;3.75;;;2.05;;
45136;SDS011;30894;51.740;19.498;2023-04-06T14:24:43;3.45;;;2.05;;
45136;SDS011;30894;51.740;19.498;2023-04-06T14:27:10;4.57;;;2.00;;
45136;SDS011;30894;51.740;19.498;2023-04-06T14:29:36;2.75;;;1.65;;
45136;SDS011;30894;51.740;19.498;2023-04-06T14:32:02;3.75;;;2.17;;
45136;SDS011;30894;51.740;19.498;2023-04-06T14:34:28;3.47;;;2.33;;
45136;SDS011;30894;51.740;19.498;2023-04-06T14:36:55;4.78;;;2.75;;
45136;SDS011;30894;51.740;19.498;2023-04-06T14:39:21;2.58;;;1.67;;
45136;SDS011;30894;51.740;19.498;2023-04-06T14:41:47;5.47;;;2.00;;
45136;SDS011;30894;51.740;19.498;2023-04-06T14:44:14;3.95;;;2.15;;
45136;SDS011;30894;51.740;19.498;2023-04-06T14:46:42;3.22;;;2.47;;